Time;durP1;ratioP1;P1;durP2;ratioP2;P2;SDS_P1;SDS_P2;PMS_P1;PMS_P2;Temp;Humidity;BMP_temperature;BMP_pressure;BME280_temperature;BME280_humidity;BME280_pressure;Samples;Min_cycle;Max_cycle;Signal;HPM_P1;HPM_P2
2022/01/07 00:00:13;;;;;;;;;;;2.50;99.90;;;;;;5072802;28;20324;-73
2022/01/07 00:02:39;;;;;;;;;;;2.50;99.90;;;;;;5071978;28;19950;-72
2022/01/07 00:05:06;;;;;;;;;;;2.50;99.90;;;;;;5072589;28;19920;-72
2022/01/07 00:07:31;;;;;;;;;;;2.40;99.90;;;;;;5072346;28;19954;-72
2022/01/07 00:09:57;;;;;;;;;;;2.50;99.90;;;;;;5072529;28;19943;-73
2022/01/07 00:12:23;;;;;;;;;;;2.40;99.90;;;;;;5071780;28;19904;-73
2022/01/07 00:14:49;;;;;;;;;;;2.50;99.90;;;;;;5054411;28;19922;-73
2022/01/07 00:17:14;;;;;;;;;;;2.50;99.90;;;;;;5071890;28;20264;-73
2022/01/07 00:19:40;;;;;;;;;;;2.50;99.90;;;;;;5072299;28;19916;-73
2022/01/07 00:22:06;;;;;;;;;;;2.40;99.90;;;;;;5039881;28;19904;-73
2022/01/07 00:24:31;;;;;;;;;;;2.40;99.90;;;;;;5034253;28;20011;-73
2022/01/07 00:26:57;;;;;;;;;;;2.50;99.90;;;;;;5046441;28;20318;-72
2022/01/07 00:29:22;;;;;;;;;;;2.50;99.90;;;;;;5071997;28;19919;-72
2022/01/07 00:31:48;;;;;;;;;;;2.50;99.90;;;;;;5071324;28;19909;-72
2022/01/07 00:34:13;;;;;;;;;;;2.60;99.90;;;;;;5072690;28;19991;-72
2022/01/07 00:36:39;;;;;;;;;;;2.60;99.90;;;;;;5072007;28;19912;-73
2022/01/07 00:39:04;;;;;;;;;;;2.60;99.90;;;;;;5072470;28;19939;-71
2022/01/07 00:41:31;;;;;;;;;;;2.60;99.90;;;;;;5068050;28;19931;-73
2022/01/07 00:43:57;;;;;;;;;;;2.60;99.90;;;;;;5072426;28;19913;-72
2022/01/07 00:46:23;;;;;;;;;;;2.60;99.90;;;;;;5071534;28;20007;-72
2022/01/07 00:48:48;;;;;;;;;;;2.60;99.90;;;;;;5071385;28;20002;-73
2022/01/07 00:51:14;;;;;;;;;;;2.60;99.90;;;;;;5053066;28;19952;-72
2022/01/07 00:53:41;;;;;;;;;;;2.60;99.90;;;;;;5053823;28;19915;-71
2022/01/07 00:56:07;;;;;;;;;;;2.60;99.90;;;;;;5071309;28;19917;-71
2022/01/07 00:58:32;;;;;;;;;;;2.60;99.90;;;;;;5053087;28;19919;-72
2022/01/07 01:00:58;;;;;;;;;;;2.60;99.90;;;;;;5071077;28;19990;-73
2022/01/07 01:03:23;;;;;;;;;;;2.60;99.90;;;;;;5071595;28;19908;-73
2022/01/07 01:05:50;;;;;;;;;;;2.60;99.90;;;;;;5071159;28;19908;-72
2022/01/07 01:08:15;;;;;;;;;;;2.60;99.90;;;;;;5053098;28;19998;-73
2022/01/07 01:10:41;;;;;;;;;;;2.60;99.90;;;;;;5052723;28;20348;-73
2022/01/07 01:13:07;;;;;;;;;;;2.50;99.90;;;;;;5071397;28;19908;-73
2022/01/07 01:15:32;;;;;;;;;;;2.50;99.90;;;;;;5070919;28;19948;-72
2022/01/07 01:17:58;;;;;;;;;;;2.50;99.90;;;;;;5070926;28;20360;-73
2022/01/07 01:20:24;;;;;;;;;;;2.50;99.90;;;;;;5053090;28;19923;-74
2022/01/07 01:22:50;;;;;;;;;;;2.50;99.90;;;;;;5071219;28;19912;-73
2022/01/07 01:25:16;;;;;;;;;;;2.50;99.90;;;;;;5053185;28;19913;-73
2022/01/07 01:27:41;;;;;;;;;;;2.60;99.90;;;;;;5070683;28;19908;-72
2022/01/07 01:30:08;;;;;;;;;;;2.60;99.90;;;;;;5070719;28;19908;-73
2022/01/07 01:32:34;;;;;;;;;;;2.60;99.90;;;;;;5070639;28;19908;-72
2022/01/07 01:35:00;;;;;;;;;;;2.60;99.90;;;;;;5070918;28;19999;-73
2022/01/07 01:37:25;;;;;;;;;;;2.60;99.90;;;;;;5070394;28;20607;-73
2022/01/07 01:39:51;;;;;;;;;;;2.60;99.90;;;;;;5052596;28;20412;-73
2022/01/07 01:42:17;;;;;;;;;;;2.60;99.90;;;;;;5054454;28;19921;-73
2022/01/07 01:44:42;;;;;;;;;;;2.70;99.90;;;;;;5050065;28;19963;-73
2022/01/07 01:47:08;;;;;;;;;;;2.60;99.90;;;;;;5064808;28;20034;-73
2022/01/07 01:49:33;;;;;;;;;;;2.60;99.90;;;;;;5052177;28;19916;-71
2022/01/07 01:52:00;;;;;;;;;;;2.60;99.90;;;;;;5070254;28;20264;-72
2022/01/07 01:54:25;;;;;;;;;;;2.50;99.90;;;;;;5070387;28;19912;-72
2022/01/07 01:56:51;;;;;;;;;;;2.50;99.90;;;;;;5069889;28;19938;-72
2022/01/07 01:59:24;;;;;;;;;;;2.40;99.90;;;;;;5052271;28;19912;-72
2022/01/07 02:01:49;;;;;;;;;;;2.40;99.90;;;;;;5070286;28;19908;-72
2022/01/07 02:04:15;;;;;;;;;;;2.40;99.90;;;;;;5070927;28;20007;-71
2022/01/07 02:06:41;;;;;;;;;;;2.40;99.90;;;;;;5070128;28;19912;-72
2022/01/07 02:09:06;;;;;;;;;;;2.40;99.90;;;;;;5070573;28;19915;-73
2022/01/07 02:11:33;;;;;;;;;;;2.40;99.90;;;;;;5070247;28;19908;-73
2022/01/07 02:13:58;;;;;;;;;;;2.40;99.90;;;;;;5070924;28;20402;-73
2022/01/07 02:16:25;;;;;;;;;;;2.40;99.90;;;;;;5069977;28;19992;-72
2022/01/07 02:18:51;;;;;;;;;;;2.40;99.90;;;;;;5052330;28;20395;-73
2022/01/07 02:21:16;;;;;;;;;;;2.40;99.90;;;;;;5051968;28;19912;-71
2022/01/07 02:23:42;;;;;;;;;;;2.40;99.90;;;;;;5070651;28;19913;-73
2022/01/07 02:26:08;;;;;;;;;;;2.40;99.90;;;;;;5069800;28;19909;-72
2022/01/07 02:28:34;;;;;;;;;;;2.40;99.90;;;;;;5070049;28;20355;-72
2022/01/07 02:31:00;;;;;;;;;;;2.30;99.90;;;;;;5064473;28;19909;-72
2022/01/07 02:33:26;;;;;;;;;;;2.40;99.90;;;;;;5050111;28;19978;-72
2022/01/07 02:35:51;;;;;;;;;;;2.40;99.90;;;;;;5060306;28;19919;-74
2022/01/07 02:38:17;;;;;;;;;;;2.40;99.90;;;;;;5070282;28;19908;-73
2022/01/07 02:40:43;;;;;;;;;;;2.40;99.90;;;;;;5066476;28;19916;-73
2022/01/07 02:43:09;;;;;;;;;;;2.40;99.90;;;;;;5031969;28;20384;-72
2022/01/07 02:45:35;;;;;;;;;;;2.40;99.90;;;;;;5032890;28;20344;-72
2022/01/07 02:48:03;;;;;;;;;;;2.30;99.90;;;;;;5052100;28;20200;-72
2022/01/07 02:50:33;;;;;;;;;;;2.30;99.90;;;;;;5069914;28;20310;-72
2022/01/07 02:52:59;;;;;;;;;;;2.30;99.90;;;;;;5051950;28;19912;-72
2022/01/07 02:55:26;;;;;;;;;;;2.20;99.90;;;;;;5069703;28;20399;-71
2022/01/07 02:57:52;;;;;;;;;;;2.00;99.90;;;;;;5055337;28;19951;-72
2022/01/07 03:00:18;;;;;;;;;;;1.70;99.90;;;;;;5073483;28;19947;-73
2022/01/07 03:02:44;;;;;;;;;;;1.50;99.90;;;;;;5073528;28;19912;-72
2022/01/07 03:05:10;;;;;;;;;;;1.40;99.90;;;;;;5073449;28;19978;-72
2022/01/07 03:07:36;;;;;;;;;;;1.40;99.90;;;;;;5073623;28;20359;-74
2022/01/07 03:10:03;;;;;;;;;;;1.30;99.90;;;;;;5073448;28;20363;-73
2022/01/07 03:12:28;;;;;;;;;;;1.20;99.90;;;;;;5073481;28;19964;-71
2022/01/07 03:14:54;;;;;;;;;;;1.20;99.90;;;;;;5073562;28;19950;-73
2022/01/07 03:17:19;;;;;;;;;;;1.30;99.90;;;;;;5055301;28;19950;-73
2022/01/07 03:19:45;;;;;;;;;;;1.30;99.90;;;;;;5073313;28;19912;-72
2022/01/07 03:22:10;;;;;;;;;;;1.30;99.90;;;;;;5073198;28;19923;-72
2022/01/07 03:24:38;;;;;;;;;;;1.30;99.90;;;;;;5073059;28;19909;-72
2022/01/07 03:27:03;;;;;;;;;;;1.30;99.90;;;;;;5055050;28;19911;-72
2022/01/07 03:29:29;;;;;;;;;;;1.30;99.90;;;;;;5073123;28;19912;-72
2022/01/07 03:31:55;;;;;;;;;;;1.30;99.90;;;;;;5072656;28;19930;-72
2022/01/07 03:34:21;;;;;;;;;;;1.30;99.90;;;;;;5073080;28;20312;-72
2022/01/07 03:36:46;;;;;;;;;;;1.40;99.90;;;;;;5072838;28;20007;-73
2022/01/07 03:39:12;;;;;;;;;;;1.40;99.90;;;;;;5055140;28;19908;-72
2022/01/07 03:41:37;;;;;;;;;;;1.40;99.90;;;;;;5043917;28;19921;-72
2022/01/07 03:44:03;;;;;;;;;;;1.40;99.90;;;;;;5053493;28;19909;-72
2022/01/07 03:46:29;;;;;;;;;;;1.40;99.90;;;;;;5061744;28;19913;-73
2022/01/07 03:48:54;;;;;;;;;;;1.40;99.90;;;;;;5073531;28;19908;-72
2022/01/07 03:51:20;;;;;;;;;;;1.40;99.90;;;;;;5072393;28;19908;-73
2022/01/07 03:53:46;;;;;;;;;;;1.40;99.90;;;;;;5073221;28;19919;-73
2022/01/07 03:56:17;;;;;;;;;;;1.40;99.90;;;;;;5054734;28;20328;-72
2022/01/07 03:58:43;;;;;;;;;;;1.30;99.90;;;;;;5055172;28;20340;-73
2022/01/07 04:01:08;;;;;;;;;;;1.40;99.90;;;;;;5072158;28;19960;-73
2022/01/07 04:03:34;;;;;;;;;;;1.30;99.90;;;;;;5073224;28;19967;-73
2022/01/07 04:06:00;;;;;;;;;;;1.30;99.90;;;;;;5072620;28;20201;-72
2022/01/07 04:08:25;;;;;;;;;;;1.40;99.90;;;;;;5072495;28;19908;-72
2022/01/07 04:10:51;;;;;;;;;;;1.30;99.90;;;;;;5071887;28;19916;-72
2022/01/07 04:13:16;;;;;;;;;;;1.30;99.90;;;;;;5072605;28;20038;-72
2022/01/07 04:15:42;;;;;;;;;;;1.30;99.90;;;;;;5072292;28;19909;-73
2022/01/07 04:18:08;;;;;;;;;;;1.30;99.90;;;;;;5072459;28;20406;-73
2022/01/07 04:20:34;;;;;;;;;;;1.20;99.90;;;;;;5054108;28;20136;-73
2022/01/07 04:23:00;;;;;;;;;;;1.20;99.90;;;;;;5072439;28;19947;-73
2022/01/07 04:25:26;;;;;;;;;;;1.20;99.90;;;;;;5054195;28;19916;-74
2022/01/07 04:27:54;;;;;;;;;;;1.10;99.90;;;;;;5072500;28;19910;-73
2022/01/07 04:30:20;;;;;;;;;;;1.10;99.90;;;;;;5053892;28;19917;-72
2022/01/07 04:32:46;;;;;;;;;;;1.20;99.90;;;;;;5071627;28;20264;-72
2022/01/07 04:35:12;;;;;;;;;;;1.10;99.90;;;;;;5072318;28;19920;-71
2022/01/07 04:37:38;;;;;;;;;;;1.10;99.90;;;;;;5053371;28;19908;-71
2022/01/07 04:40:05;;;;;;;;;;;1.10;99.90;;;;;;5034823;28;20514;-71
2022/01/07 04:42:30;;;;;;;;;;;1.00;99.90;;;;;;5069996;28;19995;-73
2022/01/07 04:44:56;;;;;;;;;;;1.00;99.90;;;;;;5072059;28;20440;-71
2022/01/07 04:47:21;;;;;;;;;;;1.00;99.90;;;;;;5071850;28;19977;-72
2022/01/07 04:49:47;;;;;;;;;;;1.00;99.90;;;;;;5071461;28;19908;-74
2022/01/07 04:52:13;;;;;;;;;;;1.10;99.90;;;;;;5053194;28;19908;-72
2022/01/07 04:54:38;;;;;;;;;;;1.10;99.90;;;;;;5071889;28;20171;-73
2022/01/07 04:57:04;;;;;;;;;;;1.00;99.90;;;;;;5071509;28;20404;-72
2022/01/07 04:59:30;;;;;;;;;;;0.90;99.90;;;;;;5071549;28;19919;-72
2022/01/07 05:01:55;;;;;;;;;;;0.90;99.90;;;;;;5052991;28;19998;-72
2022/01/07 05:04:21;;;;;;;;;;;0.80;99.90;;;;;;5053729;28;19915;-71
2022/01/07 05:06:47;;;;;;;;;;;0.80;99.90;;;;;;5071408;28;20370;-72
2022/01/07 05:09:16;;;;;;;;;;;0.80;99.90;;;;;;5071618;28;19909;-72
2022/01/07 05:11:42;;;;;;;;;;;0.80;99.90;;;;;;5053230;28;19917;-72
2022/01/07 05:14:07;;;;;;;;;;;0.80;99.90;;;;;;5053255;28;20050;-71
2022/01/07 05:16:33;;;;;;;;;;;0.80;99.90;;;;;;5061332;28;19908;-72
2022/01/07 05:18:58;;;;;;;;;;;0.80;99.90;;;;;;5032532;28;19912;-72
2022/01/07 05:21:24;;;;;;;;;;;0.80;99.90;;;;;;5041058;28;20400;-71
2022/01/07 05:23:49;;;;;;;;;;;0.70;99.90;;;;;;5071237;28;19912;-73
2022/01/07 05:26:15;;;;;;;;;;;0.70;99.90;;;;;;5052870;28;19916;-71
2022/01/07 05:28:41;;;;;;;;;;;0.70;99.90;;;;;;5071122;28;19909;-72
2022/01/07 05:31:06;;;;;;;;;;;0.60;99.90;;;;;;5070647;28;19908;-72
2022/01/07 05:33:32;;;;;;;;;;;0.60;99.90;;;;;;5052869;28;19908;-71
2022/01/07 05:36:00;;;;;;;;;;;0.60;99.90;;;;;;5070764;28;19908;-72
2022/01/07 05:38:25;;;;;;;;;;;0.70;99.90;;;;;;5071292;28;19909;-72
2022/01/07 05:40:51;;;;;;;;;;;0.70;99.90;;;;;;5070432;28;19916;-73
2022/01/07 05:43:16;;;;;;;;;;;0.60;99.90;;;;;;5070815;28;20007;-72
2022/01/07 05:45:45;;;;;;;;;;;0.60;99.90;;;;;;5070560;28;19909;-72
2022/01/07 05:48:11;;;;;;;;;;;0.60;99.90;;;;;;5070836;28;20350;-72
2022/01/07 05:50:37;;;;;;;;;;;0.50;99.90;;;;;;5052283;28;20276;-72
2022/01/07 05:53:02;;;;;;;;;;;0.40;99.90;;;;;;5070126;28;19908;-72
2022/01/07 05:55:28;;;;;;;;;;;0.30;99.90;;;;;;5070521;28;19908;-72
2022/01/07 05:57:54;;;;;;;;;;;0.30;99.90;;;;;;5070273;28;19915;-72
2022/01/07 06:00:19;;;;;;;;;;;0.30;99.90;;;;;;5070411;28;20014;-72
2022/01/07 06:02:45;;;;;;;;;;;0.30;99.90;;;;;;5069936;28;19916;-73
2022/01/07 06:05:11;;;;;;;;;;;0.30;99.90;;;;;;5070434;28;19908;-72
2022/01/07 06:07:37;;;;;;;;;;;0.30;99.90;;;;;;5051386;28;20007;-72
2022/01/07 06:10:03;;;;;;;;;;;0.20;99.90;;;;;;5032463;28;20444;-73
2022/01/07 06:12:29;;;;;;;;;;;0.10;99.90;;;;;;5067258;28;20364;-72
2022/01/07 06:14:55;;;;;;;;;;;0.10;99.90;;;;;;5070134;28;19916;-73
2022/01/07 06:17:20;;;;;;;;;;;0.10;99.90;;;;;;5069702;28;19908;-72
2022/01/07 06:19:46;;;;;;;;;;;0.10;99.90;;;;;;5070119;28;19908;-72
2022/01/07 06:22:12;;;;;;;;;;;0.10;99.90;;;;;;5069768;28;19923;-72
2022/01/07 06:24:38;;;;;;;;;;;0.10;99.90;;;;;;5070075;28;19909;-72
2022/01/07 06:27:03;;;;;;;;;;;0.10;99.90;;;;;;5051346;28;19915;-74
2022/01/07 06:29:29;;;;;;;;;;;0.10;99.90;;;;;;5052184;28;19918;-70
2022/01/07 06:31:54;;;;;;;;;;;0.10;99.90;;;;;;5069500;28;19905;-71
2022/01/07 06:34:20;;;;;;;;;;;0.10;99.90;;;;;;5069694;28;20002;-72
2022/01/07 06:36:47;;;;;;;;;;;0.10;99.90;;;;;;5051866;28;19950;-73
2022/01/07 06:39:13;;;;;;;;;;;0.20;99.90;;;;;;5070557;28;19912;-73
2022/01/07 06:41:38;;;;;;;;;;;0.20;99.90;;;;;;5069304;28;20322;-72
2022/01/07 06:44:04;;;;;;;;;;;0.10;99.90;;;;;;5051628;28;19919;-73
2022/01/07 06:46:30;;;;;;;;;;;0.10;99.90;;;;;;5060667;28;19946;-72
2022/01/07 06:48:55;;;;;;;;;;;0.00;99.90;;;;;;5050518;28;19908;-72
2022/01/07 06:51:21;;;;;;;;;;;0.00;99.90;;;;;;5039620;28;20284;-72
2022/01/07 06:53:46;;;;;;;;;;;0.00;99.90;;;;;;5070009;28;20021;-72
2022/01/07 06:56:12;;;;;;;;;;;0.00;99.90;;;;;;5062804;28;19909;-72
2022/01/07 06:58:38;;;;;;;;;;;-0.10;99.90;;;;;;5050146;28;19951;-73
2022/01/07 07:01:05;;;;;;;;;;;-0.10;99.90;;;;;;5055215;28;19938;-72
2022/01/07 07:03:31;;;;;;;;;;;0.00;99.90;;;;;;5069978;28;19952;-73
2022/01/07 07:05:56;;;;;;;;;;;0.10;99.90;;;;;;5069596;28;20006;-72
2022/01/07 07:08:22;;;;;;;;;;;0.10;99.90;;;;;;5069684;28;19913;-73
2022/01/07 07:10:47;;;;;;;;;;;0.80;99.90;;;;;;5069664;28;19909;-72
2022/01/07 07:13:13;;;;;;;;;;;2.50;99.90;;;;;;5051570;28;19912;-72
2022/01/07 07:15:39;;;;;;;;;;;2.90;99.90;;;;;;5068664;28;19919;-72
2022/01/07 07:18:04;;;;;;;;;;;2.80;99.90;;;;;;5069872;28;20102;-72
2022/01/07 07:20:30;;;;;;;;;;;3.60;99.90;;;;;;5069226;28;19920;-73
2022/01/07 07:22:55;;;;;;;;;;;4.50;99.90;;;;;;5069704;28;19962;-73
2022/01/07 07:25:23;;;;;;;;;;;5.40;99.90;;;;;;5069329;28;19962;-73
2022/01/07 07:27:49;;;;;;;;;;;5.50;99.90;;;;;;5069647;28;19951;-73
2022/01/07 07:30:15;;;;;;;;;;;6.10;99.90;;;;;;5069444;28;19912;-72
2022/01/07 07:32:41;;;;;;;;;;;7.20;99.90;;;;;;5069121;28;19962;-73
2022/01/07 07:37:38;;;;;;;;;;;6.70;99.90;;;;;;5069191;28;20002;-74
2022/01/07 07:40:04;;;;;;;;;;;5.90;99.90;;;;;;5069015;28;20367;-74
2022/01/07 07:42:29;;;;;;;;;;;6.10;99.90;;;;;;5034473;28;20296;-73
2022/01/07 07:44:55;;;;;;;;;;;6.70;99.90;;;;;;5034688;28;19909;-72
2022/01/07 07:47:20;;;;;;;;;;;6.60;99.90;;;;;;5068768;28;20018;-72
2022/01/07 07:49:46;;;;;;;;;;;6.40;99.90;;;;;;5054753;28;19919;-72
2022/01/07 07:52:12;;;;;;;;;;;6.20;99.90;;;;;;5072290;28;20103;-72
2022/01/07 07:54:37;;;;;;;;;;;6.00;99.90;;;;;;5054317;28;20080;-73
2022/01/07 07:57:03;;;;;;;;;;;5.80;99.90;;;;;;5072650;28;19905;-73
2022/01/07 07:59:29;;;;;;;;;;;6.10;99.90;;;;;;5054702;28;19981;-74
2022/01/07 08:01:54;;;;;;;;;;;6.30;99.90;;;;;;5072427;28;19915;-74
2022/01/07 08:04:21;;;;;;;;;;;6.10;99.90;;;;;;5071975;28;19919;-74
2022/01/07 08:06:47;;;;;;;;;;;5.50;99.90;;;;;;5042411;28;19905;-72
2022/01/07 08:09:13;;;;;;;;;;;5.40;99.90;;;;;;5052865;28;19909;-72
2022/01/07 08:11:49;;;;;;;;;;;5.20;99.90;;;;;;5044494;28;19913;-73
2022/01/07 08:17:00;;;;;;;;;;;5.00;99.90;;;;;;5071905;28;20058;-73
2022/01/07 08:19:26;;;;;;;;;;;5.20;99.90;;;;;;5054133;28;19999;-73
2022/01/07 08:21:51;;;;;;;;;;;5.20;99.90;;;;;;5053555;28;19913;-73
2022/01/07 08:24:17;;;;;;;;;;;5.10;99.90;;;;;;5072162;28;19912;-74
2022/01/07 08:26:43;;;;;;;;;;;4.80;99.90;;;;;;5071983;28;19943;-74
2022/01/07 08:29:11;;;;;;;;;;;4.60;99.90;;;;;;5053929;28;19912;-74
2022/01/07 08:36:49;;;;;;;;;;;4.10;99.90;;;;;;5071577;28;19982;-75
2022/01/07 08:39:14;;;;;;;;;;;4.20;99.90;;;;;;5054142;28;19955;-74
2022/01/07 08:41:41;;;;;;;;;;;4.30;99.90;;;;;;5070974;28;20387;-74
2022/01/07 08:44:07;;;;;;;;;;;4.50;99.90;;;;;;5071642;28;20003;-73
2022/01/07 08:46:32;;;;;;;;;;;4.60;96.90;;;;;;5053021;28;20006;-73
2022/01/07 08:48:58;;;;;;;;;;;4.60;95.40;;;;;;5053847;28;19934;-73
2022/01/07 08:51:25;;;;;;;;;;;4.30;94.80;;;;;;5052958;28;20346;-74
2022/01/07 08:53:51;;;;;;;;;;;4.00;94.60;;;;;;5071892;28;20038;-74
2022/01/07 08:56:17;;;;;;;;;;;3.80;94.40;;;;;;5070923;28;20007;-73
2022/01/07 08:58:43;;;;;;;;;;;3.80;91.80;;;;;;5072058;28;19923;-74
2022/01/07 09:01:08;;;;;;;;;;;3.40;95.50;;;;;;5070989;28;19952;-72
2022/01/07 09:03:34;;;;;;;;;;;3.30;96.00;;;;;;5071237;28;20457;-73
2022/01/07 09:05:59;;;;;;;;;;;3.60;96.70;;;;;;5070875;28;20228;-72
2022/01/07 09:08:25;;;;;;;;;;;3.60;96.40;;;;;;5071699;28;20272;-73
2022/01/07 09:10:51;;;;;;;;;;;3.60;94.20;;;;;;5071048;28;20272;-73
2022/01/07 09:13:19;;;;;;;;;;;3.60;95.60;;;;;;5071555;28;19914;-74
2022/01/07 09:15:45;;;;;;;;;;;3.80;95.40;;;;;;5052515;28;19908;-75
2022/01/07 09:18:11;;;;;;;;;;;4.00;95.00;;;;;;5071075;28;20305;-75
2022/01/07 09:20:38;;;;;;;;;;;4.10;95.40;;;;;;5070382;28;19919;-74
2022/01/07 09:23:04;;;;;;;;;;;4.20;96.10;;;;;;5071144;28;19909;-74
2022/01/07 09:25:30;;;;;;;;;;;4.10;95.80;;;;;;5070969;28;19920;-75
2022/01/07 09:27:55;;;;;;;;;;;3.90;96.60;;;;;;5070759;28;19908;-74
2022/01/07 09:30:21;;;;;;;;;;;3.80;96.50;;;;;;5070677;28;20315;-73
2022/01/07 09:32:47;;;;;;;;;;;4.80;98.20;;;;;;5070606;28;19961;-73
2022/01/07 09:35:14;;;;;;;;;;;3.70;97.50;;;;;;5070727;28;19914;-74
2022/01/07 09:37:40;;;;;;;;;;;3.50;98.60;;;;;;5070031;28;19916;-73
2022/01/07 09:40:05;;;;;;;;;;;3.60;97.90;;;;;;5070419;28;19977;-74
2022/01/07 09:42:31;;;;;;;;;;;3.70;96.10;;;;;;5070091;28;20018;-74
2022/01/07 09:44:57;;;;;;;;;;;3.50;98.60;;;;;;5070192;28;20371;-73
2022/01/07 09:47:23;;;;;;;;;;;3.50;97.90;;;;;;5053531;28;19991;-74
2022/01/07 09:49:49;;;;;;;;;;;3.50;98.90;;;;;;5050568;28;20156;-72
2022/01/07 09:52:15;;;;;;;;;;;3.50;99.80;;;;;;5065479;28;20324;-73
2022/01/07 09:54:41;;;;;;;;;;;3.50;99.70;;;;;;5070422;28;19997;-75
2022/01/07 09:57:07;;;;;;;;;;;3.60;99.90;;;;;;5051662;28;19915;-74
2022/01/07 09:59:33;;;;;;;;;;;3.90;98.50;;;;;;5052249;28;19916;-73
2022/01/07 10:01:59;;;;;;;;;;;3.70;98.80;;;;;;5069861;28;20348;-73
2022/01/07 10:04:28;;;;;;;;;;;3.60;99.50;;;;;;5069936;28;19913;-73
2022/01/07 10:07:12;;;;;;;;;;;3.80;99.90;;;;;;5051291;28;19911;-73
2022/01/07 10:09:41;;;;;;;;;;;3.70;99.90;;;;;;5051788;28;19912;-74
2022/01/07 10:12:08;;;;;;;;;;;3.80;99.90;;;;;;5051740;28;19904;-74
2022/01/07 10:14:36;;;;;;;;;;;3.90;99.90;;;;;;5070386;28;20272;-74
2022/01/07 10:17:02;;;;;;;;;;;3.90;97.20;;;;;;5069649;28;19911;-73
2022/01/07 10:19:29;;;;;;;;;;;3.50;97.60;;;;;;5052396;28;19919;-73
2022/01/07 10:21:56;;;;;;;;;;;3.00;99.90;;;;;;5057238;28;19916;-73
2022/01/07 10:24:21;;;;;;;;;;;2.60;99.90;;;;;;5050146;28;19909;-73
2022/01/07 10:27:07;;;;;;;;;;;2.30;99.90;;;;;;5060762;28;19911;-74
2022/01/07 10:29:37;;;;;;;;;;;1.90;99.90;;;;;;5069567;28;19919;-73
2022/01/07 10:32:18;;;;;;;;;;;1.80;99.90;;;;;;5069568;28;20276;-73
2022/01/07 10:35:02;;;;;;;;;;;1.70;99.90;;;;;;5070050;28;20002;-73
2022/01/07 10:37:28;;;;;;;;;;;1.90;99.90;;;;;;5069134;28;19910;-72
2022/01/07 10:39:53;;;;;;;;;;;2.20;99.90;;;;;;5070056;28;19928;-73
2022/01/07 10:42:22;;;;;;;;;;;2.20;99.90;;;;;;5035089;28;19920;-74
2022/01/07 10:44:58;;;;;;;;;;;2.00;99.90;;;;;;5049770;28;19909;-74
2022/01/07 10:47:24;;;;;;;;;;;2.00;99.90;;;;;;5065734;28;20378;-74
2022/01/07 10:49:50;;;;;;;;;;;2.00;99.90;;;;;;5069712;28;19917;-73
2022/01/07 10:52:22;;;;;;;;;;;2.00;99.90;;;;;;5069482;28;19919;-74
2022/01/07 10:55:06;;;;;;;;;;;1.90;99.90;;;;;;5069821;28;20005;-73
2022/01/07 10:57:37;;;;;;;;;;;2.00;99.90;;;;;;5050990;28;19919;-72
2022/01/07 11:00:07;;;;;;;;;;;2.30;99.90;;;;;;5069473;28;20078;-73
2022/01/07 11:02:36;;;;;;;;;;;2.60;99.90;;;;;;5069657;28;20351;-73
2022/01/07 11:05:02;;;;;;;;;;;2.60;99.90;;;;;;5069480;28;19965;-73
2022/01/07 11:07:28;;;;;;;;;;;2.30;99.90;;;;;;5068958;28;20271;-73
2022/01/07 11:09:57;;;;;;;;;;;1.90;99.90;;;;;;5069599;28;19919;-73
2022/01/07 11:12:25;;;;;;;;;;;1.50;99.90;;;;;;5069305;28;20323;-74
2022/01/07 11:14:51;;;;;;;;;;;1.20;99.90;;;;;;5069170;28;20378;-74
2022/01/07 11:17:21;;;;;;;;;;;1.20;99.90;;;;;;5069773;28;19908;-73
2022/01/07 11:19:55;;;;;;;;;;;1.30;99.90;;;;;;5055469;28;20426;-74
2022/01/07 11:22:22;;;;;;;;;;;1.60;99.90;;;;;;5054749;28;20291;-72
2022/01/07 11:25:03;;;;;;;;;;;1.90;99.90;;;;;;5055263;28;19913;-72
2022/01/07 11:27:29;;;;;;;;;;;2.00;99.90;;;;;;5055015;28;19931;-74
2022/01/07 11:30:04;;;;;;;;;;;1.90;99.90;;;;;;5072978;28;20352;-73
2022/01/07 11:32:40;;;;;;;;;;;1.80;99.90;;;;;;5054745;28;19973;-74
2022/01/07 11:35:21;;;;;;;;;;;2.10;99.90;;;;;;5054926;28;20537;-73
2022/01/07 11:37:50;;;;;;;;;;;2.10;99.90;;;;;;5072854;28;20458;-73
2022/01/07 11:40:28;;;;;;;;;;;2.20;99.90;;;;;;5055088;28;19909;-72
2022/01/07 11:42:54;;;;;;;;;;;2.30;99.90;;;;;;5034843;28;19917;-72
2022/01/07 11:45:29;;;;;;;;;;;2.50;99.90;;;;;;5053023;28;20383;-72
2022/01/07 11:47:56;;;;;;;;;;;2.20;99.90;;;;;;5053164;28;19962;-73
2022/01/07 11:50:24;;;;;;;;;;;2.00;99.90;;;;;;5053046;28;19908;-72
2022/01/07 11:53:05;;;;;;;;;;;2.40;99.90;;;;;;5052698;28;20425;-73
2022/01/07 11:55:31;;;;;;;;;;;2.60;99.90;;;;;;5053768;28;19909;-73
2022/01/07 11:57:58;;;;;;;;;;;3.20;99.90;;;;;;5072924;28;19916;-74
2022/01/07 12:00:43;;;;;;;;;;;4.00;99.90;;;;;;5072581;28;20216;-74
2022/01/07 12:03:08;;;;;;;;;;;4.40;99.90;;;;;;5035044;28;19916;-74
2022/01/07 12:05:34;;;;;;;;;;;4.50;99.90;;;;;;5035813;28;19913;-74
2022/01/07 12:07:59;;;;;;;;;;;4.40;99.90;;;;;;5054950;28;20050;-74
2022/01/07 12:10:25;;;;;;;;;;;4.10;99.90;;;;;;5072411;28;19913;-73
2022/01/07 12:12:57;;;;;;;;;;;3.40;99.90;;;;;;5072771;28;19912;-73
2022/01/07 12:15:23;;;;;;;;;;;3.20;99.90;;;;;;5072468;28;20001;-73
2022/01/07 12:17:48;;;;;;;;;;;3.50;99.90;;;;;;5072456;28;19946;-73
2022/01/07 12:20:33;;;;;;;;;;;2.80;99.90;;;;;;5072071;28;20326;-73
2022/01/07 12:22:58;;;;;;;;;;;2.20;99.90;;;;;;5052179;28;19916;-74
2022/01/07 12:25:24;;;;;;;;;;;1.80;99.90;;;;;;5051635;28;19908;-74
2022/01/07 12:27:58;;;;;;;;;;;1.60;99.90;;;;;;5071695;28;20007;-74
2022/01/07 12:30:23;;;;;;;;;;;1.50;99.90;;;;;;5053692;28;20038;-74
2022/01/07 12:32:49;;;;;;;;;;;1.30;99.90;;;;;;5053654;28;20006;-74
2022/01/07 12:35:14;;;;;;;;;;;1.20;99.90;;;;;;5072237;28;19908;-74
2022/01/07 12:37:40;;;;;;;;;;;1.10;99.90;;;;;;5071525;28;20037;-74
2022/01/07 12:40:07;;;;;;;;;;;1.00;99.90;;;;;;5053543;28;20372;-74
2022/01/07 12:42:36;;;;;;;;;;;1.00;99.90;;;;;;5052791;28;20022;-73
2022/01/07 12:45:02;;;;;;;;;;;0.80;99.90;;;;;;5033807;28;19919;-73
2022/01/07 12:47:29;;;;;;;;;;;0.70;99.90;;;;;;5050700;28;19908;-73
2022/01/07 12:49:58;;;;;;;;;;;0.60;99.90;;;;;;5053762;28;19915;-73
2022/01/07 12:52:24;;;;;;;;;;;0.50;99.90;;;;;;5071581;28;19908;-73
2022/01/07 12:54:52;;;;;;;;;;;0.60;99.90;;;;;;5071485;28;19916;-73
2022/01/07 12:57:32;;;;;;;;;;;0.70;99.90;;;;;;5053201;28;19944;-73
2022/01/07 13:00:03;;;;;;;;;;;0.70;99.90;;;;;;5071412;28;19962;-74
2022/01/07 13:02:28;;;;;;;;;;;0.60;99.90;;;;;;5071117;28;19919;-73
2022/01/07 13:05:08;;;;;;;;;;;0.60;99.90;;;;;;5071313;28;19908;-73
2022/01/07 13:07:38;;;;;;;;;;;0.70;99.90;;;;;;5071280;28;19928;-73
2022/01/07 13:10:04;;;;;;;;;;;0.70;99.90;;;;;;5070940;28;19909;-73
2022/01/07 13:12:30;;;;;;;;;;;0.70;99.90;;;;;;5071068;28;20007;-74
2022/01/07 13:14:55;;;;;;;;;;;0.70;99.90;;;;;;5053264;28;20262;-73
2022/01/07 13:17:24;;;;;;;;;;;0.80;99.90;;;;;;5070951;28;20366;-73
2022/01/07 13:19:50;;;;;;;;;;;0.80;99.90;;;;;;5052669;28;20308;-74
2022/01/07 13:22:16;;;;;;;;;;;0.90;99.90;;;;;;5070531;28;20342;-74
2022/01/07 13:24:42;;;;;;;;;;;0.70;99.90;;;;;;5070845;28;19919;-74
2022/01/07 13:27:08;;;;;;;;;;;0.70;99.90;;;;;;5070685;28;19908;-74
2022/01/07 13:29:33;;;;;;;;;;;0.60;99.90;;;;;;5069575;28;20403;-74
2022/01/07 13:32:03;;;;;;;;;;;0.50;99.90;;;;;;5070220;28;19958;-72
2022/01/07 13:34:38;;;;;;;;;;;0.50;99.90;;;;;;5052569;28;20291;-73
2022/01/07 13:37:05;;;;;;;;;;;0.50;99.90;;;;;;5052640;28;20148;-73
2022/01/07 13:39:50;;;;;;;;;;;0.50;99.90;;;;;;5070058;28;20366;-72
2022/01/07 13:42:23;;;;;;;;;;;0.50;99.90;;;;;;5070553;28;20269;-73
2022/01/07 13:45:00;;;;;;;;;;;0.50;99.90;;;;;;5052860;28;19915;-73
2022/01/07 13:47:29;;;;;;;;;;;0.40;99.90;;;;;;5052597;28;20275;-73
2022/01/07 13:50:05;;;;;;;;;;;0.40;99.90;;;;;;5070613;28;19915;-73
2022/01/07 13:52:33;;;;;;;;;;;0.30;99.90;;;;;;5069735;28;19988;-73
2022/01/07 13:54:59;;;;;;;;;;;0.20;99.90;;;;;;5052426;28;19916;-72
2022/01/07 13:57:29;;;;;;;;;;;0.20;99.90;;;;;;5070768;28;19955;-72
2022/01/07 13:59:54;;;;;;;;;;;0.30;99.90;;;;;;5070417;28;19912;-73
2022/01/07 14:02:21;;;;;;;;;;;0.30;99.90;;;;;;5051796;28;20328;-72
2022/01/07 14:04:48;;;;;;;;;;;0.30;99.90;;;;;;5070244;28;19912;-73
2022/01/07 14:07:23;;;;;;;;;;;0.30;99.90;;;;;;5054721;28;20337;-72
2022/01/07 14:10:07;;;;;;;;;;;0.20;99.90;;;;;;5032340;28;20007;-73
2022/01/07 14:12:33;;;;;;;;;;;0.20;99.90;;;;;;5067514;28;19908;-74
2022/01/07 14:15:10;;;;;;;;;;;0.20;99.90;;;;;;5052486;28;19931;-74
2022/01/07 14:17:36;;;;;;;;;;;0.10;99.90;;;;;;5052336;28;20272;-73
2022/01/07 14:20:03;;;;;;;;;;;0.20;99.90;;;;;;5032369;28;19912;-73
2022/01/07 14:22:30;;;;;;;;;;;0.20;99.90;;;;;;5049061;28;19950;-73
2022/01/07 14:24:56;;;;;;;;;;;0.20;99.90;;;;;;5071078;28;20369;-73
2022/01/07 14:27:29;;;;;;;;;;;0.10;99.90;;;;;;5070204;28;20109;-73
2022/01/07 14:29:55;;;;;;;;;;;0.20;99.90;;;;;;5069933;28;20586;-74
2022/01/07 14:32:21;;;;;;;;;;;0.20;99.90;;;;;;5070046;28;20011;-73
2022/01/07 14:34:47;;;;;;;;;;;0.10;99.90;;;;;;5052298;28;20327;-73
2022/01/07 14:37:13;;;;;;;;;;;0.10;99.90;;;;;;5051613;28;19912;-74
2022/01/07 14:39:40;;;;;;;;;;;0.10;99.90;;;;;;5069902;28;19913;-73